Latest Weather Observations for Charlton

IDV60801

Issued at 8:52 pm EST Wednesday 19 September 2018 (issued every 10 minutes, with the page automatically refreshed every 10 minutes)

About weather observations | Map of weather stations | Latest weather observations for VIC | Other Formats
Station Details ID: 080128 Name: CHARLTON Lat: -36.28 Lon: 143.33 Height: 131.7 m
Data from the previous 72 hours. | See also: Recent months at Charlton
Date/Time
EST
Temp
°C
App
Temp
°C
Dew
Point
°C
Rel
Hum
%
Delta-T
°C
Wind Press
QNH
hPa
Press
MSL
hPa
Rain since
9am
mm
Dir  Spd
km/h
Gust
km/h
Spd
kts
Gust
kts
19/08:30pm 8.6 5.1 3.6 71 2.2 WSW 11 17 6 9 1018.0 1018.1 0.0
19/08:00pm 8.9 5.7 3.3 68 2.4 WSW 9 15 5 8 1017.6 1017.7 0.0
19/07:30pm 10.0 6.9 3.5 64 2.9 WSW 9 15 5 8 1017.2 1017.3 0.0
19/07:00pm 11.2 8.1 3.7 60 3.3 WSW 9 15 5 8 1016.8 1016.9 0.0
19/06:30pm 11.1 7.6 3.6 60 3.3 SW 11 17 6 9 1016.4 1016.5 0.0
19/06:00pm 11.4 7.8 5.1 65 2.9 SW 13 20 7 11 1016.2 1016.3 0.0
19/05:30pm 13.2 8.4 2.4 48 4.8 WSW 17 32 9 17 1015.7 1015.8 0.0
19/05:00pm 14.5 10.0 0.0 37 6.1 WSW 13 22 7 12 1015.1 1015.1 0.0
19/04:30pm 14.7 10.2 -0.6 35 6.4 SW 13 19 7 10 1014.9 1014.9 0.0
19/04:00pm 16.6 11.8 -0.1 32 7.2 WSW 15 24 8 13 1014.8 1014.8 0.0
19/03:30pm 15.8 11.3 0.0 34 6.8 WSW 13 19 7 10 1014.6 1014.6 0.0
19/03:00pm 15.0 10.5 -0.3 35 6.5 W 13 20 7 11 1014.8 1014.8 0.0
19/02:30pm 15.3 10.8 -0.4 34 6.6 WSW 13 20 7 11 1014.9 1014.9 0.0
19/02:00pm 15.9 11.1 0.5 35 6.7 WSW 15 24 8 13 1015.0 1015.0 0.0
19/01:30pm 14.3 9.1 0.2 38 6.0 SW 17 26 9 14 1015.3 1015.4 0.0
19/01:00pm 15.5 10.4 0.9 37 6.4 WSW 17 26 9 14 1015.5 1015.6 0.0
19/12:30pm 13.6 8.7 1.9 45 5.1 WSW 17 32 9 17 1015.7 1015.8 0.0
19/12:00pm 13.5 8.1 1.5 44 5.2 SW 19 32 10 17 1015.7 1015.8 0.0
19/11:30am 13.9 9.0 1.9 44 5.3 SW 17 30 9 16 1015.7 1015.8 0.0
19/11:00am 12.9 7.8 3.0 51 4.4 WSW 19 30 10 16 1015.7 1015.8 0.0
19/10:30am 12.1 8.0 4.3 59 3.6 WSW 15 26 8 14 1015.7 1015.8 0.0
19/10:00am 10.7 6.3 4.8 67 2.7 WSW 17 26 9 14 1015.7 1015.8 0.0
19/09:30am 9.3 5.0 5.3 76 1.8 W 17 26 9 14 1015.4 1015.5 0.0
19/09:00am 7.7 3.4 5.3 85 1.1 W 17 24 9 13 1015.3 1015.4 0.6
19/08:30am 6.5 2.7 5.8 95 0.3 WSW 15 20 8 11 1015.2 1015.2 0.6
19/08:00am 4.5 1.6 4.4 99 0.0 W 9 17 5 9 1014.8 1014.8 0.6
19/07:30am 3.5 0.9 3.4 99 0.0 SW 6 7 3 4 1014.6 1014.6 0.6
19/07:00am 2.2 -0.2 2.1 99 0.0 S 4 7 2 4 1014.0 1014.0 0.6
19/06:30am 2.2 -0.2 2.1 99 0.0 W 4 7 2 4 1013.5 1013.5 0.6
19/06:00am 2.7 -0.2 2.6 99 0.0 W 7 13 4 7 1013.0 1013.0 0.6
19/05:30am 3.0 -0.2 2.9 99 0.0 W 9 15 5 8 1012.7 1012.7 0.6
19/05:00am 3.0 -0.3 2.6 97 0.2 W 9 13 5 7 1012.4 1012.4 0.6
19/04:30am 3.4 0.2 2.8 96 0.2 WNW 9 15 5 8 1012.1 1012.1 0.6
19/04:00am 3.8 0.2 3.2 96 0.2 WNW 11 19 6 10 1012.0 1012.0 0.6
19/03:30am 3.9 0.7 3.2 95 0.3 WNW 9 13 5 7 1011.7 1011.7 0.6
19/03:00am 4.5 1.0 3.6 94 0.4 WNW 11 17 6 9 1011.6 1011.6 0.6
19/02:30am 4.6 1.1 3.6 93 0.4 WNW 11 17 6 9 1011.7 1011.7 0.4
19/02:00am 5.3 1.9 4.0 91 0.6 W 11 17 6 9 1011.9 1011.9 0.4
19/01:30am 6.0 1.9 4.5 90 0.6 W 15 22 8 12 1012.0 1012.0 0.4
19/01:00am 6.1 2.5 4.9 92 0.5 WNW 13 20 7 11 1012.0 1012.0 0.4
19/12:30am 6.8 3.6 5.3 90 0.7 W 11 20 6 11 1011.9 1011.9 0.4
19/12:00am 7.1 4.4 5.4 89 0.8 W 9 13 5 7 1011.9 1011.9 0.4
 
Date/Time
EST
Temp
°C
App
Temp
°C
Dew
Point
°C
Rel
Hum
%
Delta-T
°C
Wind Press
QNH
hPa
Press
MSL
hPa
Rain since
9am
mm
Dir  Spd
km/h
Gust
km/h
Spd
kts
Gust
kts
18/11:30pm 7.5 5.1 5.1 85 1.1 WNW 7 11 4 6 1011.9 1011.9 0.4
18/11:00pm 8.6 5.9 5.7 82 1.3 WNW 9 13 5 7 1012.3 1012.3 0.4
18/10:30pm 9.2 6.6 5.9 80 1.5 WNW 9 13 5 7 1012.7 1012.7 0.4
18/10:00pm 9.9 7.5 6.8 81 1.5 W 9 15 5 8 1012.8 1012.8 0.4
18/09:30pm 10.4 7.6 7.1 80 1.6 WNW 11 17 6 9 1012.7 1012.7 0.4
18/09:00pm 10.8 8.3 6.7 76 1.9 WNW 9 19 5 10 1012.7 1012.7 0.4
18/08:30pm 11.0 8.6 7.1 77 1.9 WSW 9 17 5 9 1012.4 1012.4 0.4
18/08:00pm 11.4 9.1 7.5 77 1.9 WSW 9 17 5 9 1011.9 1011.9 0.4
18/07:30pm 11.5 8.0 7.4 76 2.0 WNW 15 26 8 14 1011.4 1011.4 0.4
18/07:00pm 11.0 8.3 7.3 78 1.8 NW 11 17 6 9 1010.8 1010.8 0.4
18/06:30pm 11.9 8.0 7.0 72 2.4 NNW 17 22 9 12 1010.2 1010.3 0.4
18/06:00pm 13.2 9.7 7.4 68 2.9 NNW 15 20 8 11 1010.0 1010.1 0.4
18/05:30pm 13.7 9.8 7.0 64 3.3 NNW 17 26 9 14 1010.2 1010.3 0.4
18/05:00pm 12.8 9.9 8.3 74 2.2 NW 13 20 7 11 1010.3 1010.4 0.4
18/04:30pm 12.4 10.2 7.9 74 2.2 NNW 9 20 5 11 1009.3 1009.4 0.2
18/04:00pm 13.1 10.7 8.6 74 2.3 NW 11 20 6 11 1009.7 1009.8 0.0
18/03:30pm 14.5 10.7 7.5 63 3.5 W 17 26 9 14 1009.5 1009.6 0.0
18/03:00pm 15.2 11.1 8.0 62 3.6 WNW 19 33 10 18 1010.1 1010.2 0.0
18/02:30pm 17.4 13.1 5.4 45 5.8 W 17 30 9 16 1009.9 1010.0 0.0
18/02:00pm 18.0 13.1 4.2 40 6.6 W 19 32 10 17 1010.1 1010.2 0.0
18/01:30pm 18.8 13.6 2.6 34 7.5 WNW 19 28 10 15 1010.0 1010.1 0.0
18/01:00pm 19.2 13.7 0.8 29 8.3 WNW 19 32 10 17 1009.7 1009.8 0.0
18/12:30pm 18.4 13.1 -0.9 27 8.3 WNW 17 28 9 15 1010.5 1010.5 0.0
18/12:00pm 18.7 12.6 -2.3 24 8.8 WNW 20 33 11 18 1010.3 1010.4 0.0
18/11:30am 18.0 11.3 -4.6 21 9.0 NW 22 39 12 21 1011.0 1011.0 0.0
18/11:00am 20.3 14.3 -3.4 20 9.9 NNW 19 33 10 18 1011.1 1011.1 0.0
18/10:30am 17.2 11.0 -5.3 21 8.7 NNW 19 30 10 16 1011.6 1011.6 0.0
18/10:00am 16.1 9.3 -5.0 23 8.2 NNW 22 33 12 18 1011.7 1011.7 0.0
18/09:30am 16.6 10.4 -4.6 23 8.3 NNW 19 32 10 17 1012.0 1012.0 0.0
18/09:00am 14.4 9.4 -4.3 27 7.2 NNW 13 22 7 12 1012.2 1012.2 0.2
18/08:30am 12.9 6.6 -5.6 27 6.8 N 19 26 10 14 1012.2 1012.2 0.2
18/08:00am 12.8 7.3 -5.2 28 6.7 N 15 24 8 13 1012.1 1012.1 0.2
18/07:30am 11.7 4.8 -5.7 29 6.3 N 22 32 12 17 1012.1 1012.1 0.2
18/07:00am 8.6 3.4 -6.0 35 5.0 N 13 20 7 11 1012.3 1012.3 0.2
18/06:30am 8.5 3.7 -5.7 36 4.9 N 11 20 6 11 1012.1 1012.1 0.2
18/06:00am 9.0 3.8 -6.0 34 5.2 N 13 26 7 14 1012.2 1012.2 0.2
18/05:30am 10.0 4.1 -5.9 32 5.6 N 17 26 9 14 1011.9 1011.9 0.2
18/05:00am 9.4 4.6 -5.6 34 5.3 N 11 17 6 9 1011.8 1011.8 0.2
18/04:30am 10.5 5.0 -5.5 32 5.7 N 15 22 8 12 1012.0 1012.0 0.2
18/04:00am 11.0 5.1 -5.5 31 5.9 N 17 26 9 14 1012.2 1012.2 0.2
18/03:30am 10.9 5.1 -5.1 32 5.8 N 17 26 9 14 1012.2 1012.2 0.2
18/03:00am 11.0 5.2 -5.0 32 5.8 N 17 24 9 13 1012.9 1012.9 0.2
18/02:30am 10.4 5.4 -4.4 35 5.4 N 13 20 7 11 1013.3 1013.3 0.2
18/02:00am 9.7 5.1 -3.9 38 5.0 NNE 11 19 6 10 1013.7 1013.7 0.2
18/01:30am 9.6 5.1 -3.3 40 4.8 NNE 11 17 6 9 1014.1 1014.1 0.2
18/01:00am 8.7 4.6 -2.9 44 4.3 NE 9 15 5 8 1014.3 1014.3 0.2
18/12:30am 7.8 4.1 -3.1 46 4.0 NE 7 11 4 6 1014.4 1014.4 0.2
18/12:00am 9.3 5.2 -2.9 42 4.6 NE 9 11 5 6 1014.5 1014.5 0.2
 
Date/Time
EST
Temp
°C
App
Temp
°C
Dew
Point
°C
Rel
Hum
%
Delta-T
°C
Wind Press
QNH
hPa
Press
MSL
hPa
Rain since
9am
mm
Dir  Spd
km/h
Gust
km/h
Spd
kts
Gust
kts
17/11:30pm 10.0 5.5 -3.0 40 4.9 NNE 11 15 6 8 1014.6 1014.6 0.2
17/11:00pm 10.5 5.7 -2.5 40 5.0 NNE 13 17 7 9 1014.6 1014.6 0.2
17/10:30pm 11.0 6.9 -2.8 38 5.3 NNE 9 15 5 8 1015.0 1015.0 0.2
17/10:00pm 11.3 6.9 -2.8 37 5.4 NNE 11 17 6 9 1015.2 1015.2 0.2
17/09:30pm 12.0 7.6 -2.6 36 5.7 NNE 11 17 6 9 1015.4 1015.5 0.2
17/09:00pm 12.1 7.7 -2.5 36 5.7 NNE 11 13 6 7 1015.6 1015.7 0.2
17/08:30pm 11.9 8.4 -2.7 36 5.7 NNE 6 9 3 5 1015.8 1015.9 0.2
17/08:00pm 13.5 9.4 -2.8 32 6.4 NNE 9 13 5 7 1015.8 1015.9 0.2
17/07:30pm 14.3 10.6 -2.6 31 6.7 N 7 15 4 8 1015.9 1016.0 0.2
17/07:00pm 14.3 10.6 -2.6 31 6.7 NNE 7 9 4 5 1015.8 1015.9 0.2
17/06:30pm 15.2 11.1 -3.2 28 7.3 N 9 13 5 7 1015.9 1016.0 0.2
17/06:00pm 16.3 11.9 -2.7 27 7.7 N 11 15 6 8 1015.9 1016.0 0.2
17/05:30pm 17.1 11.9 -3.1 25 8.2 N 15 22 8 12 1016.0 1016.1 0.2
17/05:00pm 17.6 12.0 -2.6 25 8.3 NNW 17 28 9 15 1016.1 1016.2 0.2
17/04:30pm 18.6 12.7 -2.3 24 8.8 N 19 32 10 17 1016.2 1016.3 0.2
17/04:00pm 18.1 12.6 -2.2 25 8.5 N 17 30 9 16 1016.1 1016.2 0.2
17/03:30pm 17.9 12.0 -2.4 25 8.4 N 19 35 10 19 1016.6 1016.7 0.2
17/03:00pm 18.9 13.0 -1.0 26 8.6 NNW 20 33 11 18 1017.0 1017.1 0.2
17/02:30pm 17.9 12.0 -1.9 26 8.3 N 19 26 10 14 1017.5 1017.6 0.2
17/02:00pm 18.5 12.8 -0.8 27 8.3 NNW 19 32 10 17 1018.1 1018.2 0.2
17/01:30pm 18.4 12.7 -0.4 28 8.2 NW 19 28 10 15 1018.7 1018.7 0.2
17/01:00pm 17.4 12.1 -0.8 29 7.8 NNW 17 30 9 16 1019.2 1019.2 0.2
17/12:30pm 17.6 12.1 0.3 31 7.6 N 19 33 10 18 1020.0 1020.0 0.2
17/12:00pm 16.6 11.0 -0.1 32 7.2 NNW 19 32 10 17 1020.6 1020.6 0.2
17/11:30am 15.8 10.0 0.0 34 6.8 NNW 20 32 11 17 1021.2 1021.2 0.2
17/11:00am 15.9 10.8 0.5 35 6.6 NNW 17 26 9 14 1021.4 1021.4 0.0
17/10:30am 15.9 10.4 0.9 36 6.6 NNW 19 35 10 19 1021.8 1021.9 0.0
17/10:00am 14.2 9.4 0.1 38 5.9 N 15 20 8 11 1022.2 1022.3 0.0
17/09:30am 12.9 8.1 0.0 41 5.4 N 15 26 8 14 1022.4 1022.5 0.0
17/09:00am 12.0 7.7 1.3 48 4.5 N 13 20 7 11 1022.7 1022.8 0.0
17/08:30am 10.2 6.0 1.8 56 3.6 N 13 19 7 10 1022.8 1022.9 0.0
17/08:00am 8.2 5.4 2.9 69 2.2 NNE 7 9 4 5 1022.8 1022.9 0.0
17/07:30am 5.0 2.0 2.0 81 1.2 NE 7 11 4 6 1022.7 1022.8 0.0
17/07:00am 1.0 -0.9 0.3 95 0.3 CALM 0 4 0 2 1022.5 1022.6 0.0
17/06:30am 0.1 -2.4 -1.0 92 0.4 NNE 2 6 1 3 1022.5 1022.6 0.0
17/06:00am 0.6 -1.5 -0.8 90 0.5 CALM 0 0 0 0 1022.3 1022.4 0.0
17/05:30am 1.0 -1.1 -0.8 88 0.6 CALM 0 0 0 0 1022.3 1022.4 0.0
17/05:00am 1.9 -0.4 0.1 88 0.7 SW 2 7 1 4 1022.2 1022.3 0.0
17/04:30am 2.5 0.5 0.2 85 0.9 CALM 0 6 0 3 1022.0 1022.1 0.0
17/04:00am 2.2 0.4 0.9 91 0.5 CALM 0 0 0 0 1021.9 1022.0 0.0
17/03:30am 1.6 -0.7 0.4 92 0.4 W 2 9 1 5 1022.0 1022.1 0.0
17/03:00am 0.7 -1.5 -1.2 87 0.7 CALM 0 0 0 0 1022.1 1022.2 0.0
17/02:30am 1.7 -1.1 -0.4 86 0.8 ENE 4 6 2 3 1022.1 1022.2 0.0
17/02:00am 2.3 0.4 0.7 89 0.6 CALM 0 0 0 0 1022.6 1022.7 0.0
17/01:30am 1.9 0.0 0.4 90 0.6 CALM 0 0 0 0 1023.0 1023.1 0.0
17/01:00am 2.4 0.5 0.3 86 0.8 CALM 0 0 0 0 1023.1 1023.2 0.0
17/12:30am 3.1 1.2 0.7 84 0.9 CALM 0 0 0 0 1023.1 1023.2 0.0
17/12:00am 3.8 1.9 0.7 80 1.2 CALM 0 0 0 0 1023.1 1023.2 0.0
 
Date/Time
EST
Temp
°C
App
Temp
°C
Dew
Point
°C
Rel
Hum
%
Delta-T
°C
Wind Press
QNH
hPa
Press
MSL
hPa
Rain since
9am
mm
Dir  Spd
km/h
Gust
km/h
Spd
kts
Gust
kts
16/11:30pm 4.6 2.8 1.1 78 1.4 CALM 0 0 0 0 1023.2 1023.3 0.0
16/11:00pm 5.2 3.4 1.1 75 1.6 CALM 0 0 0 0 1023.3 1023.4 0.0
16/10:30pm 6.3 4.5 1.4 71 2.0 CALM 0 0 0 0 1023.5 1023.6 0.0
16/10:00pm 7.0 5.3 1.9 70 2.1 CALM 0 0 0 0 1023.7 1023.8 0.0
16/09:30pm 7.4 5.8 2.3 70 2.1 CALM 0 7 0 4 1023.7 1023.8 0.0
16/09:00pm 7.5 5.9 2.2 69 2.2 CALM 0 0 0 0 1023.6 1023.7 0.0

Other Formats:

Comma delimited format used in spreadsheet applications
http://www.bom.gov.au/fwo/IDV60801/IDV60801.94839.axf

JavaScript Object Notation format (JSON) in row-major order
http://www.bom.gov.au/fwo/IDV60801/IDV60801.94839.json